sensor_id;sensor_type;location;lat;lon;timestamp;P1;durP1;ratioP1;P2;durP2;ratioP2
51286;SDS011;37364;46.974;18.916;2023-07-20T00:00:46;15.57;;;4.75;;
51286;SDS011;37364;46.974;18.916;2023-07-20T00:03:34;15.57;;;4.18;;
51286;SDS011;37364;46.974;18.916;2023-07-20T00:06:04;6.05;;;3.85;;
51286;SDS011;37364;46.974;18.916;2023-07-20T00:08:34;12.68;;;4.15;;
51286;SDS011;37364;46.974;18.916;2023-07-20T00:11:07;8.68;;;3.60;;
51286;SDS011;37364;46.974;18.916;2023-07-20T00:13:37;10.20;;;4.25;;
51286;SDS011;37364;46.974;18.916;2023-07-20T00:16:08;11.35;;;4.35;;
51286;SDS011;37364;46.974;18.916;2023-07-20T00:18:38;6.00;;;3.75;;
51286;SDS011;37364;46.974;18.916;2023-07-20T00:21:08;11.98;;;4.10;;
51286;SDS011;37364;46.974;18.916;2023-07-20T00:23:38;9.40;;;3.83;;
51286;SDS011;37364;46.974;18.916;2023-07-20T00:26:11;7.07;;;3.80;;
51286;SDS011;37364;46.974;18.916;2023-07-20T00:28:42;10.07;;;3.50;;
51286;SDS011;37364;46.974;18.916;2023-07-20T00:31:13;12.85;;;3.80;;
51286;SDS011;37364;46.974;18.916;2023-07-20T00:33:43;16.95;;;4.35;;
51286;SDS011;37364;46.974;18.916;2023-07-20T00:36:13;7.13;;;3.75;;
51286;SDS011;37364;46.974;18.916;2023-07-20T00:38:43;9.32;;;3.55;;
51286;SDS011;37364;46.974;18.916;2023-07-20T00:41:18;6.57;;;3.60;;
51286;SDS011;37364;46.974;18.916;2023-07-20T00:43:48;13.15;;;3.55;;
51286;SDS011;37364;46.974;18.916;2023-07-20T00:46:20;8.68;;;3.95;;
51286;SDS011;37364;46.974;18.916;2023-07-20T00:48:53;10.23;;;3.70;;
51286;SDS011;37364;46.974;18.916;2023-07-20T00:51:23;6.15;;;3.63;;
51286;SDS011;37364;46.974;18.916;2023-07-20T00:53:56;9.25;;;3.78;;
51286;SDS011;37364;46.974;18.916;2023-07-20T00:56:29;10.95;;;3.75;;
51286;SDS011;37364;46.974;18.916;2023-07-20T00:59:00;6.10;;;2.90;;
51286;SDS011;37364;46.974;18.916;2023-07-20T01:01:30;9.57;;;3.45;;
51286;SDS011;37364;46.974;18.916;2023-07-20T01:04:00;6.22;;;3.03;;
51286;SDS011;37364;46.974;18.916;2023-07-20T01:06:34;11.07;;;3.65;;
51286;SDS011;37364;46.974;18.916;2023-07-20T01:09:12;9.57;;;4.20;;
51286;SDS011;37364;46.974;18.916;2023-07-20T01:11:51;4.97;;;3.50;;
51286;SDS011;37364;46.974;18.916;2023-07-20T01:14:31;6.00;;;3.42;;
51286;SDS011;37364;46.974;18.916;2023-07-20T01:17:02;7.35;;;4.05;;
51286;SDS011;37364;46.974;18.916;2023-07-20T01:19:33;7.93;;;3.50;;
51286;SDS011;37364;46.974;18.916;2023-07-20T01:22:04;10.93;;;3.55;;
51286;SDS011;37364;46.974;18.916;2023-07-20T01:24:51;6.70;;;3.55;;
51286;SDS011;37364;46.974;18.916;2023-07-20T01:27:49;6.13;;;4.20;;
51286;SDS011;37364;46.974;18.916;2023-07-20T01:30:40;8.63;;;3.63;;
51286;SDS011;37364;46.974;18.916;2023-07-20T01:33:24;9.93;;;4.63;;
51286;SDS011;37364;46.974;18.916;2023-07-20T01:35:56;13.95;;;4.00;;
51286;SDS011;37364;46.974;18.916;2023-07-20T01:38:28;11.60;;;4.03;;
51286;SDS011;37364;46.974;18.916;2023-07-20T01:40:59;6.75;;;3.78;;
51286;SDS011;37364;46.974;18.916;2023-07-20T01:43:29;12.43;;;4.22;;
51286;SDS011;37364;46.974;18.916;2023-07-20T01:46:00;9.70;;;4.38;;
51286;SDS011;37364;46.974;18.916;2023-07-20T01:48:32;13.38;;;4.03;;
51286;SDS011;37364;46.974;18.916;2023-07-20T01:51:03;9.32;;;3.70;;
51286;SDS011;37364;46.974;18.916;2023-07-20T01:53:33;11.93;;;4.18;;
51286;SDS011;37364;46.974;18.916;2023-07-20T01:56:03;13.65;;;4.35;;
51286;SDS011;37364;46.974;18.916;2023-07-20T01:58:35;9.35;;;4.43;;
51286;SDS011;37364;46.974;18.916;2023-07-20T02:01:05;13.27;;;5.38;;
51286;SDS011;37364;46.974;18.916;2023-07-20T02:03:38;12.38;;;4.57;;
51286;SDS011;37364;46.974;18.916;2023-07-20T02:06:08;12.25;;;5.63;;
51286;SDS011;37364;46.974;18.916;2023-07-20T02:08:38;6.22;;;3.90;;
51286;SDS011;37364;46.974;18.916;2023-07-20T02:11:08;10.07;;;4.05;;
51286;SDS011;37364;46.974;18.916;2023-07-20T02:13:39;8.27;;;5.10;;
51286;SDS011;37364;46.974;18.916;2023-07-20T02:16:09;10.00;;;4.07;;
51286;SDS011;37364;46.974;18.916;2023-07-20T02:18:42;8.05;;;4.50;;
51286;SDS011;37364;46.974;18.916;2023-07-20T02:21:12;11.65;;;5.18;;
51286;SDS011;37364;46.974;18.916;2023-07-20T02:23:43;10.02;;;4.38;;
51286;SDS011;37364;46.974;18.916;2023-07-20T02:26:13;9.27;;;3.90;;
51286;SDS011;37364;46.974;18.916;2023-07-20T02:28:43;7.80;;;3.78;;
51286;SDS011;37364;46.974;18.916;2023-07-20T02:31:13;9.90;;;4.05;;
51286;SDS011;37364;46.974;18.916;2023-07-20T02:33:46;10.32;;;4.45;;
51286;SDS011;37364;46.974;18.916;2023-07-20T02:36:16;7.15;;;4.03;;
51286;SDS011;37364;46.974;18.916;2023-07-20T02:38:47;8.75;;;4.68;;
51286;SDS011;37364;46.974;18.916;2023-07-20T02:41:17;9.63;;;4.97;;
51286;SDS011;37364;46.974;18.916;2023-07-20T02:43:48;11.13;;;5.00;;
51286;SDS011;37364;46.974;18.916;2023-07-20T02:46:18;10.63;;;4.20;;
51286;SDS011;37364;46.974;18.916;2023-07-20T02:48:51;8.77;;;4.50;;
51286;SDS011;37364;46.974;18.916;2023-07-20T02:51:21;9.90;;;4.80;;
51286;SDS011;37364;46.974;18.916;2023-07-20T02:53:52;14.45;;;5.03;;
51286;SDS011;37364;46.974;18.916;2023-07-20T02:56:23;9.48;;;4.75;;
51286;SDS011;37364;46.974;18.916;2023-07-20T02:58:53;10.18;;;4.57;;
51286;SDS011;37364;46.974;18.916;2023-07-20T03:01:24;11.43;;;5.07;;
51286;SDS011;37364;46.974;18.916;2023-07-20T03:03:58;9.93;;;4.50;;
51286;SDS011;37364;46.974;18.916;2023-07-20T03:06:29;8.25;;;4.75;;
51286;SDS011;37364;46.974;18.916;2023-07-20T03:09:03;22.30;;;4.70;;
51286;SDS011;37364;46.974;18.916;2023-07-20T03:11:36;11.60;;;5.80;;
51286;SDS011;37364;46.974;18.916;2023-07-20T03:14:06;15.52;;;5.20;;
51286;SDS011;37364;46.974;18.916;2023-07-20T03:16:38;13.23;;;5.43;;
51286;SDS011;37364;46.974;18.916;2023-07-20T03:19:11;8.00;;;4.72;;
51286;SDS011;37364;46.974;18.916;2023-07-20T03:21:41;13.65;;;5.93;;
51286;SDS011;37364;46.974;18.916;2023-07-20T03:24:11;7.88;;;5.38;;
51286;SDS011;37364;46.974;18.916;2023-07-20T03:26:42;7.15;;;4.78;;
51286;SDS011;37364;46.974;18.916;2023-07-20T03:29:12;9.98;;;5.05;;
51286;SDS011;37364;46.974;18.916;2023-07-20T03:31:45;17.63;;;4.78;;
51286;SDS011;37364;46.974;18.916;2023-07-20T03:34:19;11.98;;;5.25;;
51286;SDS011;37364;46.974;18.916;2023-07-20T03:36:49;18.27;;;4.85;;
51286;SDS011;37364;46.974;18.916;2023-07-20T03:39:20;15.65;;;5.10;;
51286;SDS011;37364;46.974;18.916;2023-07-20T03:41:51;14.23;;;5.38;;
51286;SDS011;37364;46.974;18.916;2023-07-20T03:44:22;14.60;;;5.18;;
51286;SDS011;37364;46.974;18.916;2023-07-20T03:46:52;17.23;;;6.00;;
51286;SDS011;37364;46.974;18.916;2023-07-20T03:49:25;9.98;;;4.93;;
51286;SDS011;37364;46.974;18.916;2023-07-20T03:51:55;9.27;;;4.90;;
51286;SDS011;37364;46.974;18.916;2023-07-20T03:54:26;4.93;;;3.95;;
51286;SDS011;37364;46.974;18.916;2023-07-20T03:56:56;11.18;;;5.30;;
51286;SDS011;37364;46.974;18.916;2023-07-20T03:59:27;18.45;;;5.40;;
51286;SDS011;37364;46.974;18.916;2023-07-20T04:01:57;13.20;;;4.97;;
51286;SDS011;37364;46.974;18.916;2023-07-20T04:04:30;9.90;;;5.22;;
51286;SDS011;37364;46.974;18.916;2023-07-20T04:07:00;10.10;;;4.53;;
51286;SDS011;37364;46.974;18.916;2023-07-20T04:09:31;14.50;;;4.75;;
51286;SDS011;37364;46.974;18.916;2023-07-20T04:12:01;8.52;;;4.47;;
51286;SDS011;37364;46.974;18.916;2023-07-20T04:14:32;8.85;;;4.68;;
51286;SDS011;37364;46.974;18.916;2023-07-20T04:17:02;14.57;;;5.20;;
51286;SDS011;37364;46.974;18.916;2023-07-20T04:19:36;10.02;;;4.68;;
51286;SDS011;37364;46.974;18.916;2023-07-20T04:22:06;14.52;;;5.50;;
51286;SDS011;37364;46.974;18.916;2023-07-20T04:24:36;8.40;;;5.03;;
51286;SDS011;37364;46.974;18.916;2023-07-20T04:27:06;13.65;;;4.53;;
51286;SDS011;37364;46.974;18.916;2023-07-20T04:29:36;13.75;;;5.90;;
51286;SDS011;37364;46.974;18.916;2023-07-20T04:32:07;11.50;;;4.75;;
51286;SDS011;37364;46.974;18.916;2023-07-20T04:34:40;12.85;;;5.43;;
51286;SDS011;37364;46.974;18.916;2023-07-20T04:39:40;12.48;;;4.97;;
51286;SDS011;37364;46.974;18.916;2023-07-20T04:42:11;12.60;;;4.22;;
51286;SDS011;37364;46.974;18.916;2023-07-20T04:44:43;9.20;;;4.40;;
51286;SDS011;37364;46.974;18.916;2023-07-20T04:47:14;9.82;;;5.38;;
51286;SDS011;37364;46.974;18.916;2023-07-20T04:49:50;8.77;;;5.10;;
51286;SDS011;37364;46.974;18.916;2023-07-20T04:52:23;12.30;;;4.65;;
51286;SDS011;37364;46.974;18.916;2023-07-20T04:55:09;7.38;;;4.35;;
51286;SDS011;37364;46.974;18.916;2023-07-20T04:57:40;9.18;;;5.20;;
51286;SDS011;37364;46.974;18.916;2023-07-20T05:00:11;10.02;;;4.63;;
51286;SDS011;37364;46.974;18.916;2023-07-20T05:02:43;18.65;;;5.90;;
51286;SDS011;37364;46.974;18.916;2023-07-20T05:05:17;11.70;;;5.72;;
51286;SDS011;37364;46.974;18.916;2023-07-20T05:10:18;13.32;;;5.78;;
51286;SDS011;37364;46.974;18.916;2023-07-20T05:12:49;20.17;;;6.13;;
51286;SDS011;37364;46.974;18.916;2023-07-20T05:15:19;12.20;;;5.28;;
51286;SDS011;37364;46.974;18.916;2023-07-20T05:17:51;8.73;;;5.10;;
51286;SDS011;37364;46.974;18.916;2023-07-20T05:20:26;10.07;;;5.10;;
51286;SDS011;37364;46.974;18.916;2023-07-20T05:22:59;12.68;;;4.18;;
51286;SDS011;37364;46.974;18.916;2023-07-20T05:25:30;7.18;;;4.38;;
51286;SDS011;37364;46.974;18.916;2023-07-20T05:28:00;12.00;;;5.28;;
51286;SDS011;37364;46.974;18.916;2023-07-20T05:30:31;23.65;;;4.82;;
51286;SDS011;37364;46.974;18.916;2023-07-20T05:33:04;8.95;;;4.55;;
51286;SDS011;37364;46.974;18.916;2023-07-20T05:35:38;14.00;;;5.00;;
51286;SDS011;37364;46.974;18.916;2023-07-20T05:38:08;6.82;;;5.00;;
51286;SDS011;37364;46.974;18.916;2023-07-20T05:40:39;12.32;;;5.38;;
51286;SDS011;37364;46.974;18.916;2023-07-20T05:43:10;10.90;;;4.68;;
51286;SDS011;37364;46.974;18.916;2023-07-20T05:45:41;14.88;;;4.68;;
51286;SDS011;37364;46.974;18.916;2023-07-20T05:48:12;8.20;;;4.50;;
51286;SDS011;37364;46.974;18.916;2023-07-20T05:50:46;10.73;;;5.22;;
51286;SDS011;37364;46.974;18.916;2023-07-20T05:53:16;9.40;;;4.82;;
51286;SDS011;37364;46.974;18.916;2023-07-20T05:55:51;13.05;;;5.13;;
51286;SDS011;37364;46.974;18.916;2023-07-20T05:58:22;10.13;;;4.63;;
51286;SDS011;37364;46.974;18.916;2023-07-20T06:00:53;6.80;;;4.95;;
51286;SDS011;37364;46.974;18.916;2023-07-20T06:03:23;11.77;;;4.80;;
51286;SDS011;37364;46.974;18.916;2023-07-20T06:06:00;11.18;;;5.10;;
51286;SDS011;37364;46.974;18.916;2023-07-20T06:08:31;15.77;;;5.15;;
51286;SDS011;37364;46.974;18.916;2023-07-20T06:11:01;9.45;;;5.35;;
51286;SDS011;37364;46.974;18.916;2023-07-20T06:13:31;12.05;;;5.32;;
51286;SDS011;37364;46.974;18.916;2023-07-20T06:16:01;24.60;;;5.22;;
51286;SDS011;37364;46.974;18.916;2023-07-20T06:18:32;7.28;;;4.65;;
51286;SDS011;37364;46.974;18.916;2023-07-20T06:21:05;12.73;;;5.50;;
51286;SDS011;37364;46.974;18.916;2023-07-20T06:23:35;15.45;;;6.00;;
51286;SDS011;37364;46.974;18.916;2023-07-20T06:26:05;10.02;;;5.07;;
51286;SDS011;37364;46.974;18.916;2023-07-20T06:28:36;20.80;;;5.10;;
51286;SDS011;37364;46.974;18.916;2023-07-20T06:31:06;11.05;;;5.22;;
51286;SDS011;37364;46.974;18.916;2023-07-20T06:33:36;16.90;;;5.93;;
51286;SDS011;37364;46.974;18.916;2023-07-20T06:36:09;13.95;;;5.68;;
51286;SDS011;37364;46.974;18.916;2023-07-20T06:38:39;15.65;;;5.13;;
51286;SDS011;37364;46.974;18.916;2023-07-20T06:41:30;21.55;;;5.78;;
51286;SDS011;37364;46.974;18.916;2023-07-20T06:44:03;12.05;;;5.35;;
51286;SDS011;37364;46.974;18.916;2023-07-20T06:46:34;10.45;;;5.55;;
51286;SDS011;37364;46.974;18.916;2023-07-20T06:49:05;12.55;;;5.95;;
51286;SDS011;37364;46.974;18.916;2023-07-20T06:51:42;14.40;;;5.50;;
51286;SDS011;37364;46.974;18.916;2023-07-20T06:54:13;17.88;;;5.07;;
51286;SDS011;37364;46.974;18.916;2023-07-20T06:56:49;16.23;;;5.32;;
51286;SDS011;37364;46.974;18.916;2023-07-20T07:01:53;10.82;;;5.15;;
51286;SDS011;37364;46.974;18.916;2023-07-20T07:04:23;13.48;;;5.75;;
51286;SDS011;37364;46.974;18.916;2023-07-20T07:06:56;25.88;;;6.30;;
51286;SDS011;37364;46.974;18.916;2023-07-20T07:09:26;21.70;;;5.80;;
51286;SDS011;37364;46.974;18.916;2023-07-20T07:11:57;15.38;;;5.13;;
51286;SDS011;37364;46.974;18.916;2023-07-20T07:14:27;27.92;;;5.32;;
51286;SDS011;37364;46.974;18.916;2023-07-20T07:16:58;15.55;;;5.35;;
51286;SDS011;37364;46.974;18.916;2023-07-20T07:19:31;11.55;;;5.30;;
51286;SDS011;37364;46.974;18.916;2023-07-20T07:22:05;20.27;;;5.53;;
51286;SDS011;37364;46.974;18.916;2023-07-20T07:24:36;12.07;;;4.60;;
51286;SDS011;37364;46.974;18.916;2023-07-20T07:27:08;7.15;;;4.88;;
51286;SDS011;37364;46.974;18.916;2023-07-20T07:29:39;14.98;;;4.97;;
51286;SDS011;37364;46.974;18.916;2023-07-20T07:32:10;20.58;;;4.70;;
51286;SDS011;37364;46.974;18.916;2023-07-20T07:34:41;13.60;;;4.85;;
51286;SDS011;37364;46.974;18.916;2023-07-20T07:37:18;24.33;;;4.97;;
51286;SDS011;37364;46.974;18.916;2023-07-20T07:39:48;4.82;;;4.20;;
51286;SDS011;37364;46.974;18.916;2023-07-20T07:42:18;19.67;;;4.55;;
51286;SDS011;37364;46.974;18.916;2023-07-20T07:44:50;10.18;;;5.03;;
51286;SDS011;37364;46.974;18.916;2023-07-20T07:47:20;14.65;;;5.13;;
51286;SDS011;37364;46.974;18.916;2023-07-20T07:49:51;20.38;;;4.63;;
51286;SDS011;37364;46.974;18.916;2023-07-20T07:52:23;11.43;;;3.92;;
51286;SDS011;37364;46.974;18.916;2023-07-20T07:54:56;13.45;;;4.78;;
51286;SDS011;37364;46.974;18.916;2023-07-20T07:57:27;17.23;;;4.13;;
51286;SDS011;37364;46.974;18.916;2023-07-20T07:59:57;12.32;;;4.32;;
51286;SDS011;37364;46.974;18.916;2023-07-20T08:02:30;11.95;;;4.53;;
51286;SDS011;37364;46.974;18.916;2023-07-20T08:05:00;14.65;;;3.90;;
51286;SDS011;37364;46.974;18.916;2023-07-20T08:07:33;12.90;;;4.10;;
51286;SDS011;37364;46.974;18.916;2023-07-20T08:10:03;26.05;;;4.93;;
51286;SDS011;37364;46.974;18.916;2023-07-20T08:12:35;18.85;;;4.38;;
51286;SDS011;37364;46.974;18.916;2023-07-20T08:15:06;18.98;;;3.85;;
51286;SDS011;37364;46.974;18.916;2023-07-20T08:17:37;12.13;;;4.45;;
51286;SDS011;37364;46.974;18.916;2023-07-20T08:20:08;18.48;;;5.20;;
51286;SDS011;37364;46.974;18.916;2023-07-20T08:22:42;6.25;;;3.92;;
51286;SDS011;37364;46.974;18.916;2023-07-20T08:25:14;14.32;;;4.18;;
51286;SDS011;37364;46.974;18.916;2023-07-20T08:27:44;14.75;;;4.63;;
51286;SDS011;37364;46.974;18.916;2023-07-20T08:30:15;21.08;;;4.00;;
51286;SDS011;37364;46.974;18.916;2023-07-20T08:32:45;19.27;;;4.35;;
51286;SDS011;37364;46.974;18.916;2023-07-20T08:35:15;9.80;;;4.20;;
51286;SDS011;37364;46.974;18.916;2023-07-20T08:40:24;10.85;;;4.00;;
51286;SDS011;37364;46.974;18.916;2023-07-20T08:42:54;25.13;;;6.22;;
51286;SDS011;37364;46.974;18.916;2023-07-20T08:45:26;7.40;;;4.07;;
51286;SDS011;37364;46.974;18.916;2023-07-20T08:47:58;12.13;;;3.63;;
51286;SDS011;37364;46.974;18.916;2023-07-20T08:50:30;14.20;;;3.97;;
51286;SDS011;37364;46.974;18.916;2023-07-20T08:53:03;8.43;;;3.60;;
51286;SDS011;37364;46.974;18.916;2023-07-20T08:55:33;11.93;;;3.55;;
51286;SDS011;37364;46.974;18.916;2023-07-20T08:58:04;22.85;;;4.18;;
51286;SDS011;37364;46.974;18.916;2023-07-20T09:00:38;22.38;;;4.20;;
51286;SDS011;37364;46.974;18.916;2023-07-20T09:03:12;15.32;;;3.58;;
51286;SDS011;37364;46.974;18.916;2023-07-20T09:05:44;21.67;;;4.00;;
51286;SDS011;37364;46.974;18.916;2023-07-20T09:08:17;8.73;;;3.33;;
51286;SDS011;37364;46.974;18.916;2023-07-20T09:10:47;7.72;;;3.55;;
51286;SDS011;37364;46.974;18.916;2023-07-20T09:13:17;9.23;;;3.05;;
51286;SDS011;37364;46.974;18.916;2023-07-20T09:15:48;13.32;;;4.10;;
51286;SDS011;37364;46.974;18.916;2023-07-20T09:18:23;21.52;;;4.65;;
51286;SDS011;37364;46.974;18.916;2023-07-20T09:20:57;8.52;;;3.72;;
51286;SDS011;37364;46.974;18.916;2023-07-20T09:23:35;11.48;;;3.67;;
51286;SDS011;37364;46.974;18.916;2023-07-20T09:26:09;4.30;;;3.30;;
51286;SDS011;37364;46.974;18.916;2023-07-20T09:28:48;22.65;;;4.85;;
51286;SDS011;37364;46.974;18.916;2023-07-20T09:31:21;13.15;;;3.92;;
51286;SDS011;37364;46.974;18.916;2023-07-20T09:33:52;12.35;;;3.47;;
51286;SDS011;37364;46.974;18.916;2023-07-20T09:36:26;9.60;;;3.95;;
51286;SDS011;37364;46.974;18.916;2023-07-20T09:39:02;18.45;;;3.50;;
51286;SDS011;37364;46.974;18.916;2023-07-20T09:41:40;9.88;;;3.97;;
51286;SDS011;37364;46.974;18.916;2023-07-20T09:44:13;16.00;;;3.70;;
51286;SDS011;37364;46.974;18.916;2023-07-20T09:46:47;12.98;;;3.33;;
51286;SDS011;37364;46.974;18.916;2023-07-20T09:49:21;17.23;;;3.70;;
51286;SDS011;37364;46.974;18.916;2023-07-20T09:51:55;19.27;;;3.90;;
51286;SDS011;37364;46.974;18.916;2023-07-20T09:54:29;18.25;;;3.35;;
51286;SDS011;37364;46.974;18.916;2023-07-20T09:57:01;21.88;;;3.42;;
51286;SDS011;37364;46.974;18.916;2023-07-20T09:59:32;15.05;;;3.53;;
51286;SDS011;37364;46.974;18.916;2023-07-20T10:02:03;16.00;;;3.15;;
51286;SDS011;37364;46.974;18.916;2023-07-20T10:04:51;21.05;;;3.33;;
51286;SDS011;37364;46.974;18.916;2023-07-20T10:07:25;16.02;;;3.58;;
51286;SDS011;37364;46.974;18.916;2023-07-20T10:10:01;7.50;;;3.20;;
51286;SDS011;37364;46.974;18.916;2023-07-20T10:12:32;16.20;;;3.35;;
51286;SDS011;37364;46.974;18.916;2023-07-20T10:15:06;10.45;;;2.72;;
51286;SDS011;37364;46.974;18.916;2023-07-20T10:17:44;16.77;;;3.30;;
51286;SDS011;37364;46.974;18.916;2023-07-20T10:20:21;29.15;;;3.75;;
51286;SDS011;37364;46.974;18.916;2023-07-20T10:22:53;10.73;;;3.28;;
51286;SDS011;37364;46.974;18.916;2023-07-20T10:25:26;8.75;;;3.13;;
51286;SDS011;37364;46.974;18.916;2023-07-20T10:27:58;13.52;;;3.50;;
51286;SDS011;37364;46.974;18.916;2023-07-20T10:30:29;15.13;;;3.00;;
51286;SDS011;37364;46.974;18.916;2023-07-20T10:32:59;8.65;;;3.97;;
51286;SDS011;37364;46.974;18.916;2023-07-20T10:35:31;14.05;;;3.20;;
51286;SDS011;37364;46.974;18.916;2023-07-20T10:38:20;12.75;;;3.10;;
51286;SDS011;37364;46.974;18.916;2023-07-20T10:41:20;12.43;;;3.92;;
51286;SDS011;37364;46.974;18.916;2023-07-20T10:43:55;14.18;;;3.33;;
51286;SDS011;37364;46.974;18.916;2023-07-20T10:46:34;10.63;;;3.28;;
51286;SDS011;37364;46.974;18.916;2023-07-20T10:49:14;9.75;;;2.78;;
51286;SDS011;37364;46.974;18.916;2023-07-20T10:51:48;11.07;;;3.22;;
51286;SDS011;37364;46.974;18.916;2023-07-20T10:57:24;13.27;;;3.58;;
51286;SDS011;37364;46.974;18.916;2023-07-20T11:00:08;13.32;;;2.90;;
51286;SDS011;37364;46.974;18.916;2023-07-20T11:02:47;14.38;;;3.97;;
51286;SDS011;37364;46.974;18.916;2023-07-20T11:08:10;7.78;;;3.00;;
51286;SDS011;37364;46.974;18.916;2023-07-20T11:10:40;12.55;;;3.50;;
51286;SDS011;37364;46.974;18.916;2023-07-20T11:13:20;16.25;;;3.22;;
51286;SDS011;37364;46.974;18.916;2023-07-20T11:16:02;11.25;;;3.17;;
51286;SDS011;37364;46.974;18.916;2023-07-20T11:18:34;17.65;;;3.63;;
51286;SDS011;37364;46.974;18.916;2023-07-20T11:21:08;18.10;;;3.00;;
51286;SDS011;37364;46.974;18.916;2023-07-20T11:23:39;17.40;;;3.70;;
51286;SDS011;37364;46.974;18.916;2023-07-20T11:26:09;30.55;;;3.78;;
51286;SDS011;37364;46.974;18.916;2023-07-20T11:28:42;11.70;;;3.17;;
51286;SDS011;37364;46.974;18.916;2023-07-20T11:31:13;12.23;;;3.42;;
51286;SDS011;37364;46.974;18.916;2023-07-20T11:33:44;25.13;;;2.92;;
51286;SDS011;37364;46.974;18.916;2023-07-20T11:36:14;11.63;;;2.70;;
51286;SDS011;37364;46.974;18.916;2023-07-20T11:38:47;12.07;;;2.42;;
51286;SDS011;37364;46.974;18.916;2023-07-20T11:41:17;8.07;;;2.80;;
51286;SDS011;37364;46.974;18.916;2023-07-20T11:43:51;7.63;;;2.50;;
51286;SDS011;37364;46.974;18.916;2023-07-20T11:46:21;14.43;;;3.05;;
51286;SDS011;37364;46.974;18.916;2023-07-20T11:48:55;9.68;;;2.67;;
51286;SDS011;37364;46.974;18.916;2023-07-20T11:51:28;12.43;;;2.40;;
51286;SDS011;37364;46.974;18.916;2023-07-20T11:53:58;24.17;;;2.78;;
51286;SDS011;37364;46.974;18.916;2023-07-20T11:56:30;7.03;;;3.20;;
51286;SDS011;37364;46.974;18.916;2023-07-20T11:59:03;21.63;;;3.33;;
51286;SDS011;37364;46.974;18.916;2023-07-20T12:01:33;18.70;;;3.10;;
51286;SDS011;37364;46.974;18.916;2023-07-20T12:04:03;11.57;;;2.75;;
51286;SDS011;37364;46.974;18.916;2023-07-20T12:06:34;8.98;;;3.58;;
51286;SDS011;37364;46.974;18.916;2023-07-20T12:09:04;21.83;;;3.33;;
51286;SDS011;37364;46.974;18.916;2023-07-20T12:11:34;13.55;;;2.60;;
51286;SDS011;37364;46.974;18.916;2023-07-20T12:14:08;17.60;;;3.50;;
51286;SDS011;37364;46.974;18.916;2023-07-20T12:16:43;13.73;;;2.05;;
51286;SDS011;37364;46.974;18.916;2023-07-20T12:19:14;10.55;;;2.53;;
51286;SDS011;37364;46.974;18.916;2023-07-20T12:21:44;13.95;;;2.72;;
51286;SDS011;37364;46.974;18.916;2023-07-20T12:24:15;19.60;;;2.50;;
51286;SDS011;37364;46.974;18.916;2023-07-20T12:26:47;8.73;;;2.45;;
51286;SDS011;37364;46.974;18.916;2023-07-20T12:29:20;10.70;;;2.75;;
51286;SDS011;37364;46.974;18.916;2023-07-20T12:31:50;15.60;;;2.15;;
51286;SDS011;37364;46.974;18.916;2023-07-20T12:34:20;13.23;;;2.50;;
51286;SDS011;37364;46.974;18.916;2023-07-20T12:36:50;18.25;;;2.95;;
51286;SDS011;37364;46.974;18.916;2023-07-20T12:39:24;13.35;;;2.25;;
51286;SDS011;37364;46.974;18.916;2023-07-20T12:41:54;9.85;;;2.35;;
51286;SDS011;37364;46.974;18.916;2023-07-20T12:44:26;15.38;;;2.55;;
51286;SDS011;37364;46.974;18.916;2023-07-20T12:46:56;6.53;;;2.90;;
51286;SDS011;37364;46.974;18.916;2023-07-20T12:49:27;4.93;;;2.53;;
51286;SDS011;37364;46.974;18.916;2023-07-20T12:51:57;11.30;;;2.25;;
51286;SDS011;37364;46.974;18.916;2023-07-20T12:54:27;6.55;;;3.08;;
51286;SDS011;37364;46.974;18.916;2023-07-20T12:56:57;8.88;;;2.10;;
51286;SDS011;37364;46.974;18.916;2023-07-20T12:59:35;8.13;;;2.13;;
51286;SDS011;37364;46.974;18.916;2023-07-20T13:02:05;12.02;;;2.88;;
51286;SDS011;37364;46.974;18.916;2023-07-20T13:04:35;5.80;;;2.35;;
51286;SDS011;37364;46.974;18.916;2023-07-20T13:07:09;13.18;;;2.63;;
51286;SDS011;37364;46.974;18.916;2023-07-20T13:09:43;10.77;;;2.60;;
51286;SDS011;37364;46.974;18.916;2023-07-20T13:12:13;13.77;;;2.35;;
51286;SDS011;37364;46.974;18.916;2023-07-20T13:14:46;10.95;;;1.85;;
51286;SDS011;37364;46.974;18.916;2023-07-20T13:17:16;7.63;;;1.88;;
51286;SDS011;37364;46.974;18.916;2023-07-20T13:19:46;3.33;;;2.13;;
51286;SDS011;37364;46.974;18.916;2023-07-20T13:22:17;7.00;;;1.95;;
51286;SDS011;37364;46.974;18.916;2023-07-20T13:24:47;16.27;;;2.33;;
51286;SDS011;37364;46.974;18.916;2023-07-20T13:27:18;9.70;;;2.10;;
51286;SDS011;37364;46.974;18.916;2023-07-20T13:29:51;7.10;;;2.00;;
51286;SDS011;37364;46.974;18.916;2023-07-20T13:32:23;13.00;;;2.13;;
51286;SDS011;37364;46.974;18.916;2023-07-20T13:34:57;5.75;;;2.28;;
51286;SDS011;37364;46.974;18.916;2023-07-20T13:37:27;12.70;;;1.95;;
51286;SDS011;37364;46.974;18.916;2023-07-20T13:39:57;9.25;;;2.58;;
51286;SDS011;37364;46.974;18.916;2023-07-20T13:42:28;14.45;;;2.25;;
51286;SDS011;37364;46.974;18.916;2023-07-20T13:45:00;8.25;;;1.90;;
51286;SDS011;37364;46.974;18.916;2023-07-20T13:47:32;6.38;;;2.05;;
51286;SDS011;37364;46.974;18.916;2023-07-20T13:50:03;4.13;;;1.88;;
51286;SDS011;37364;46.974;18.916;2023-07-20T13:52:35;2.92;;;1.92;;
51286;SDS011;37364;46.974;18.916;2023-07-20T13:55:08;8.98;;;2.58;;
51286;SDS011;37364;46.974;18.916;2023-07-20T13:57:38;16.25;;;2.45;;
51286;SDS011;37364;46.974;18.916;2023-07-20T14:00:12;3.90;;;1.85;;
51286;SDS011;37364;46.974;18.916;2023-07-20T14:02:47;4.95;;;2.20;;
51286;SDS011;37364;46.974;18.916;2023-07-20T14:05:22;27.75;;;3.28;;
51286;SDS011;37364;46.974;18.916;2023-07-20T14:07:55;25.52;;;2.70;;
51286;SDS011;37364;46.974;18.916;2023-07-20T14:10:25;5.57;;;2.08;;
51286;SDS011;37364;46.974;18.916;2023-07-20T14:12:55;10.05;;;2.40;;
51286;SDS011;37364;46.974;18.916;2023-07-20T14:15:28;28.15;;;1.90;;
51286;SDS011;37364;46.974;18.916;2023-07-20T14:17:58;6.20;;;1.95;;
51286;SDS011;37364;46.974;18.916;2023-07-20T14:20:29;5.78;;;2.60;;
51286;SDS011;37364;46.974;18.916;2023-07-20T14:22:59;15.45;;;2.90;;
51286;SDS011;37364;46.974;18.916;2023-07-20T14:25:29;17.20;;;2.53;;
51286;SDS011;37364;46.974;18.916;2023-07-20T14:28:00;14.95;;;3.45;;
51286;SDS011;37364;46.974;18.916;2023-07-20T14:30:35;13.52;;;2.30;;
51286;SDS011;37364;46.974;18.916;2023-07-20T14:33:05;18.38;;;2.33;;
51286;SDS011;37364;46.974;18.916;2023-07-20T14:35:36;9.10;;;2.13;;
51286;SDS011;37364;46.974;18.916;2023-07-20T14:38:06;10.75;;;2.25;;
51286;SDS011;37364;46.974;18.916;2023-07-20T14:40:36;6.90;;;2.30;;
51286;SDS011;37364;46.974;18.916;2023-07-20T14:43:06;11.10;;;2.60;;
51286;SDS011;37364;46.974;18.916;2023-07-20T14:45:39;5.70;;;2.45;;
51286;SDS011;37364;46.974;18.916;2023-07-20T14:48:10;9.43;;;2.00;;
51286;SDS011;37364;46.974;18.916;2023-07-20T14:50:40;6.05;;;2.95;;
51286;SDS011;37364;46.974;18.916;2023-07-20T14:53:12;6.15;;;2.40;;
51286;SDS011;37364;46.974;18.916;2023-07-20T14:55:44;5.28;;;2.80;;
51286;SDS011;37364;46.974;18.916;2023-07-20T14:58:14;3.80;;;2.05;;
51286;SDS011;37364;46.974;18.916;2023-07-20T15:00:50;6.20;;;2.60;;
51286;SDS011;37364;46.974;18.916;2023-07-20T15:03:20;4.70;;;2.13;;
51286;SDS011;37364;46.974;18.916;2023-07-20T15:05:50;7.20;;;2.45;;
51286;SDS011;37364;46.974;18.916;2023-07-20T15:08:22;8.77;;;2.15;;
51286;SDS011;37364;46.974;18.916;2023-07-20T15:10:52;8.73;;;2.42;;